sensor_id;sensor_type;location;lat;lon;timestamp;pressure;altitude;pressure_sealevel;temperature;humidity
38912;BME280;28444;48.056;14.408;2024-02-15T00:00:53;98175.06;;;6.03;96.75
38912;BME280;28444;48.056;14.408;2024-02-15T00:03:20;98190.53;;;6.09;96.90
38912;BME280;28444;48.056;14.408;2024-02-15T00:05:48;98182.41;;;6.09;96.78
38912;BME280;28444;48.056;14.408;2024-02-15T00:08:15;98189.59;;;6.06;96.36
38912;BME280;28444;48.056;14.408;2024-02-15T00:10:41;98187.69;;;6.01;98.32
38912;BME280;28444;48.056;14.408;2024-02-15T00:13:10;98189.97;;;5.97;97.19
38912;BME280;28444;48.056;14.408;2024-02-15T00:15:36;98185.94;;;5.85;97.47
38912;BME280;28444;48.056;14.408;2024-02-15T00:18:03;98187.59;;;5.88;98.52
38912;BME280;28444;48.056;14.408;2024-02-15T00:20:31;98185.41;;;5.86;97.97
38912;BME280;28444;48.056;14.408;2024-02-15T00:23:00;98184.13;;;5.93;98.47
38912;BME280;28444;48.056;14.408;2024-02-15T00:25:27;98187.69;;;6.01;98.44
38912;BME280;28444;48.056;14.408;2024-02-15T00:27:54;98189.09;;;6.08;97.33
38912;BME280;28444;48.056;14.408;2024-02-15T00:30:20;98181.38;;;6.12;96.72
38912;BME280;28444;48.056;14.408;2024-02-15T00:32:48;98184.81;;;6.12;96.22
38912;BME280;28444;48.056;14.408;2024-02-15T00:35:15;98191.72;;;6.13;96.79
38912;BME280;28444;48.056;14.408;2024-02-15T00:37:43;98198.09;;;6.16;97.04
38912;BME280;28444;48.056;14.408;2024-02-15T00:40:09;98185.78;;;6.15;96.88
38912;BME280;28444;48.056;14.408;2024-02-15T00:42:36;98182.53;;;6.16;97.16
38912;BME280;28444;48.056;14.408;2024-02-15T00:45:04;98180.03;;;6.18;97.42
38912;BME280;28444;48.056;14.408;2024-02-15T00:47:31;98187.16;;;6.21;96.89
38912;BME280;28444;48.056;14.408;2024-02-15T00:49:59;98193.44;;;6.30;96.82
38912;BME280;28444;48.056;14.408;2024-02-15T00:52:26;98195.00;;;6.25;95.97
38912;BME280;28444;48.056;14.408;2024-02-15T00:54:53;98201.16;;;6.25;96.51
38912;BME280;28444;48.056;14.408;2024-02-15T00:57:19;98199.19;;;6.26;96.47
38912;BME280;28444;48.056;14.408;2024-02-15T00:59:46;98199.69;;;6.24;96.42
38912;BME280;28444;48.056;14.408;2024-02-15T01:02:13;98193.75;;;6.26;96.60
38912;BME280;28444;48.056;14.408;2024-02-15T01:04:39;98193.94;;;6.28;97.11
38912;BME280;28444;48.056;14.408;2024-02-15T01:07:06;98191.16;;;6.34;95.98
38912;BME280;28444;48.056;14.408;2024-02-15T01:09:34;98191.38;;;6.36;95.26
38912;BME280;28444;48.056;14.408;2024-02-15T01:12:01;98187.50;;;6.31;94.50
38912;BME280;28444;48.056;14.408;2024-02-15T01:14:30;98189.47;;;6.31;94.37
38912;BME280;28444;48.056;14.408;2024-02-15T01:16:57;98195.47;;;6.42;93.56
38912;BME280;28444;48.056;14.408;2024-02-15T01:19:24;98189.59;;;6.38;92.85
38912;BME280;28444;48.056;14.408;2024-02-15T01:21:51;98179.25;;;6.37;92.42
38912;BME280;28444;48.056;14.408;2024-02-15T01:24:17;98185.13;;;6.41;93.43
38912;BME280;28444;48.056;14.408;2024-02-15T01:26:44;98195.16;;;6.46;93.99
38912;BME280;28444;48.056;14.408;2024-02-15T01:29:11;98183.56;;;6.45;93.85
38912;BME280;28444;48.056;14.408;2024-02-15T01:31:38;98188.56;;;6.41;94.18
38912;BME280;28444;48.056;14.408;2024-02-15T01:34:05;98191.59;;;6.38;94.82
38912;BME280;28444;48.056;14.408;2024-02-15T01:36:32;98184.28;;;6.33;95.48
38912;BME280;28444;48.056;14.408;2024-02-15T01:38:58;98188.53;;;6.28;95.25
38912;BME280;28444;48.056;14.408;2024-02-15T01:41:25;98186.75;;;6.31;94.93
38912;BME280;28444;48.056;14.408;2024-02-15T01:43:52;98194.72;;;6.29;94.74
38912;BME280;28444;48.056;14.408;2024-02-15T01:46:19;98174.63;;;6.32;95.04
38912;BME280;28444;48.056;14.408;2024-02-15T01:48:47;98174.75;;;6.26;94.18
38912;BME280;28444;48.056;14.408;2024-02-15T01:51:15;98175.16;;;6.30;94.50
38912;BME280;28444;48.056;14.408;2024-02-15T01:53:43;98172.16;;;6.34;93.81
38912;BME280;28444;48.056;14.408;2024-02-15T01:56:12;98177.50;;;6.39;94.00
38912;BME280;28444;48.056;14.408;2024-02-15T01:58:41;98169.56;;;6.41;93.64
38912;BME280;28444;48.056;14.408;2024-02-15T02:01:09;98169.78;;;6.43;93.27
38912;BME280;28444;48.056;14.408;2024-02-15T02:03:36;98164.34;;;6.43;93.08
38912;BME280;28444;48.056;14.408;2024-02-15T02:06:03;98165.81;;;6.44;93.23
38912;BME280;28444;48.056;14.408;2024-02-15T02:08:30;98164.34;;;6.43;92.33
38912;BME280;28444;48.056;14.408;2024-02-15T02:10:57;98162.13;;;6.42;92.84
38912;BME280;28444;48.056;14.408;2024-02-15T02:13:23;98156.09;;;6.49;93.10
38912;BME280;28444;48.056;14.408;2024-02-15T02:15:50;98153.16;;;6.47;93.05
38912;BME280;28444;48.056;14.408;2024-02-15T02:18:17;98148.88;;;6.51;93.26
38912;BME280;28444;48.056;14.408;2024-02-15T02:20:44;98148.88;;;6.51;92.16
38912;BME280;28444;48.056;14.408;2024-02-15T02:23:16;98150.03;;;6.56;92.72
38912;BME280;28444;48.056;14.408;2024-02-15T02:25:45;98146.59;;;6.56;92.87
38912;BME280;28444;48.056;14.408;2024-02-15T02:28:15;98141.47;;;6.52;92.46
38912;BME280;28444;48.056;14.408;2024-02-15T02:30:45;98143.97;;;6.50;93.30
38912;BME280;28444;48.056;14.408;2024-02-15T02:33:12;98138.41;;;6.42;93.87
38912;BME280;28444;48.056;14.408;2024-02-15T02:35:47;98139.66;;;6.41;94.03
38912;BME280;28444;48.056;14.408;2024-02-15T02:38:14;98132.56;;;6.38;95.30
38912;BME280;28444;48.056;14.408;2024-02-15T02:40:41;98130.13;;;6.35;95.67
38912;BME280;28444;48.056;14.408;2024-02-15T02:43:08;98133.88;;;6.32;96.52
38912;BME280;28444;48.056;14.408;2024-02-15T02:45:36;98123.97;;;6.34;96.27
38912;BME280;28444;48.056;14.408;2024-02-15T02:48:04;98131.31;;;6.39;96.15
38912;BME280;28444;48.056;14.408;2024-02-15T02:50:32;98135.91;;;6.44;95.85
38912;BME280;28444;48.056;14.408;2024-02-15T02:52:59;98132.16;;;6.47;95.72
38912;BME280;28444;48.056;14.408;2024-02-15T02:55:26;98132.16;;;6.47;95.43
38912;BME280;28444;48.056;14.408;2024-02-15T02:57:54;98123.69;;;6.51;94.27
38912;BME280;28444;48.056;14.408;2024-02-15T03:00:21;98129.56;;;6.55;95.15
38912;BME280;28444;48.056;14.408;2024-02-15T03:02:49;98122.34;;;6.58;94.26
38912;BME280;28444;48.056;14.408;2024-02-15T03:05:16;98122.13;;;6.56;96.25
38912;BME280;28444;48.056;14.408;2024-02-15T03:07:43;98121.59;;;6.57;95.33
38912;BME280;28444;48.056;14.408;2024-02-15T03:10:11;98119.84;;;6.60;95.70
38912;BME280;28444;48.056;14.408;2024-02-15T03:12:40;98129.44;;;6.61;94.90
38912;BME280;28444;48.056;14.408;2024-02-15T03:15:09;98129.66;;;6.63;94.89
38912;BME280;28444;48.056;14.408;2024-02-15T03:17:44;98128.41;;;6.64;96.25
38912;BME280;28444;48.056;14.408;2024-02-15T03:20:11;98125.59;;;6.69;95.63
38912;BME280;28444;48.056;14.408;2024-02-15T03:22:56;98121.72;;;6.51;96.96
38912;BME280;28444;48.056;14.408;2024-02-15T03:25:25;98122.56;;;6.46;97.90
38912;BME280;28444;48.056;14.408;2024-02-15T03:27:53;98131.22;;;6.45;97.63
38912;BME280;28444;48.056;14.408;2024-02-15T03:30:30;98126.50;;;6.45;97.75
38912;BME280;28444;48.056;14.408;2024-02-15T03:32:57;98118.56;;;6.47;96.13
38912;BME280;28444;48.056;14.408;2024-02-15T03:35:25;98112.31;;;6.53;96.00
38912;BME280;28444;48.056;14.408;2024-02-15T03:37:53;98121.19;;;6.53;95.28
38912;BME280;28444;48.056;14.408;2024-02-15T03:40:22;98116.69;;;6.56;94.61
38912;BME280;28444;48.056;14.408;2024-02-15T03:42:49;98116.69;;;6.56;94.64
38912;BME280;28444;48.056;14.408;2024-02-15T03:45:19;98107.50;;;6.59;94.08
38912;BME280;28444;48.056;14.408;2024-02-15T03:47:46;98106.47;;;6.62;93.75
38912;BME280;28444;48.056;14.408;2024-02-15T03:50:13;98103.66;;;6.54;95.07
38912;BME280;28444;48.056;14.408;2024-02-15T03:52:41;98106.88;;;6.53;96.19
38912;BME280;28444;48.056;14.408;2024-02-15T03:55:08;98111.06;;;6.54;95.23
38912;BME280;28444;48.056;14.408;2024-02-15T03:57:38;98117.72;;;6.53;97.30
38912;BME280;28444;48.056;14.408;2024-02-15T04:00:07;98118.69;;;6.55;97.39
38912;BME280;28444;48.056;14.408;2024-02-15T04:02:37;98116.69;;;6.56;98.24
38912;BME280;28444;48.056;14.408;2024-02-15T04:05:07;98121.41;;;6.55;99.13
38912;BME280;28444;48.056;14.408;2024-02-15T04:07:35;98117.44;;;6.56;98.61
38912;BME280;28444;48.056;14.408;2024-02-15T04:10:04;98117.53;;;6.50;100.00
38912;BME280;28444;48.056;14.408;2024-02-15T04:12:31;98117.31;;;6.48;99.92
38912;BME280;28444;48.056;14.408;2024-02-15T04:14:58;98116.59;;;6.48;100.00
38912;BME280;28444;48.056;14.408;2024-02-15T04:17:32;98128.91;;;6.49;100.00
38912;BME280;28444;48.056;14.408;2024-02-15T04:20:03;98117.53;;;6.50;99.60
38912;BME280;28444;48.056;14.408;2024-02-15T04:22:31;98118.78;;;6.49;99.62
38912;BME280;28444;48.056;14.408;2024-02-15T04:25:07;98116.50;;;6.54;98.66
38912;BME280;28444;48.056;14.408;2024-02-15T04:27:37;98123.47;;;6.49;98.77
38912;BME280;28444;48.056;14.408;2024-02-15T04:30:03;98120.44;;;6.53;97.91
38912;BME280;28444;48.056;14.408;2024-02-15T04:32:32;98132.59;;;6.51;97.88
38912;BME280;28444;48.056;14.408;2024-02-15T04:35:01;98123.91;;;6.53;98.01
38912;BME280;28444;48.056;14.408;2024-02-15T04:37:29;98136.97;;;6.55;99.21
38912;BME280;28444;48.056;14.408;2024-02-15T04:39:59;98133.31;;;6.52;99.47
38912;BME280;28444;48.056;14.408;2024-02-15T04:42:34;98132.59;;;6.51;99.34
38912;BME280;28444;48.056;14.408;2024-02-15T04:45:01;98141.69;;;6.54;99.68
38912;BME280;28444;48.056;14.408;2024-02-15T04:47:29;98140.63;;;6.57;99.52
38912;BME280;28444;48.056;14.408;2024-02-15T04:49:56;98149.31;;;6.56;97.96
38912;BME280;28444;48.056;14.408;2024-02-15T04:52:23;98152.44;;;6.60;96.95
38912;BME280;28444;48.056;14.408;2024-02-15T04:54:50;98151.00;;;6.59;97.38
38912;BME280;28444;48.056;14.408;2024-02-15T04:57:17;98156.94;;;6.57;95.74
38912;BME280;28444;48.056;14.408;2024-02-15T04:59:44;98163.13;;;6.58;96.28
38912;BME280;28444;48.056;14.408;2024-02-15T05:02:14;98161.94;;;6.53;97.48
38912;BME280;28444;48.056;14.408;2024-02-15T05:04:40;98158.91;;;6.43;97.70
38912;BME280;28444;48.056;14.408;2024-02-15T05:07:10;98162.56;;;6.46;99.24
38912;BME280;28444;48.056;14.408;2024-02-15T05:09:37;98161.41;;;6.41;98.25
38912;BME280;28444;48.056;14.408;2024-02-15T05:12:04;98159.28;;;6.34;99.34
38912;BME280;28444;48.056;14.408;2024-02-15T05:14:31;98154.81;;;6.37;99.98
38912;BME280;28444;48.056;14.408;2024-02-15T05:16:59;98158.47;;;6.39;99.32
38912;BME280;28444;48.056;14.408;2024-02-15T05:19:27;98159.59;;;6.31;98.90
38912;BME280;28444;48.056;14.408;2024-02-15T05:21:54;98157.19;;;6.27;98.47
38912;BME280;28444;48.056;14.408;2024-02-15T05:24:22;98161.22;;;6.20;98.52
38912;BME280;28444;48.056;14.408;2024-02-15T05:26:48;98157.66;;;6.12;99.19
38912;BME280;28444;48.056;14.408;2024-02-15T05:29:16;98166.72;;;6.01;99.00
38912;BME280;28444;48.056;14.408;2024-02-15T05:31:43;98168.69;;;6.01;100.00
38912;BME280;28444;48.056;14.408;2024-02-15T05:34:11;98171.72;;;5.97;100.00
38912;BME280;28444;48.056;14.408;2024-02-15T05:36:39;98170.38;;;5.85;99.81
38912;BME280;28444;48.056;14.408;2024-02-15T05:39:06;98173.09;;;5.85;100.00
38912;BME280;28444;48.056;14.408;2024-02-15T05:41:32;98166.94;;;5.85;100.00
38912;BME280;28444;48.056;14.408;2024-02-15T05:44:01;98171.16;;;5.80;100.00
38912;BME280;28444;48.056;14.408;2024-02-15T05:46:28;98179.03;;;5.84;100.00
38912;BME280;28444;48.056;14.408;2024-02-15T05:48:54;98171.59;;;5.84;100.00
38912;BME280;28444;48.056;14.408;2024-02-15T05:51:22;98171.59;;;5.84;100.00
38912;BME280;28444;48.056;14.408;2024-02-15T05:53:49;98166.78;;;5.77;100.00
38912;BME280;28444;48.056;14.408;2024-02-15T05:56:16;98161.56;;;5.79;100.00
38912;BME280;28444;48.056;14.408;2024-02-15T05:58:43;98156.28;;;5.87;100.00
38912;BME280;28444;48.056;14.408;2024-02-15T06:01:10;98154.72;;;5.91;100.00
38912;BME280;28444;48.056;14.408;2024-02-15T06:03:39;98172.28;;;5.90;100.00
38912;BME280;28444;48.056;14.408;2024-02-15T06:06:07;98166.72;;;5.83;100.00
38912;BME280;28444;48.056;14.408;2024-02-15T06:08:36;98163.25;;;5.82;100.00
38912;BME280;28444;48.056;14.408;2024-02-15T06:11:03;98158.84;;;5.79;100.00
38912;BME280;28444;48.056;14.408;2024-02-15T06:13:31;98161.56;;;5.79;100.00
38912;BME280;28444;48.056;14.408;2024-02-15T06:15:58;98165.69;;;5.86;99.80
38912;BME280;28444;48.056;14.408;2024-02-15T06:18:27;98160.31;;;5.80;100.00
38912;BME280;28444;48.056;14.408;2024-02-15T06:20:55;98164.00;;;5.83;100.00
38912;BME280;28444;48.056;14.408;2024-02-15T06:23:28;98167.44;;;5.83;100.00
38912;BME280;28444;48.056;14.408;2024-02-15T06:25:56;98165.84;;;5.74;100.00
38912;BME280;28444;48.056;14.408;2024-02-15T06:28:28;98170.75;;;5.76;100.00
38912;BME280;28444;48.056;14.408;2024-02-15T06:31:14;98178.38;;;5.77;100.00
38912;BME280;28444;48.056;14.408;2024-02-15T06:33:59;98181.72;;;5.84;100.00
38912;BME280;28444;48.056;14.408;2024-02-15T06:36:55;98172.78;;;5.89;99.34
38912;BME280;28444;48.056;14.408;2024-02-15T06:39:41;98176.00;;;5.87;100.00
38912;BME280;28444;48.056;14.408;2024-02-15T06:42:11;98174.03;;;5.88;100.00
38912;BME280;28444;48.056;14.408;2024-02-15T06:44:39;98177.19;;;5.92;100.00
38912;BME280;28444;48.056;14.408;2024-02-15T06:47:07;98176.41;;;5.97;99.92
38912;BME280;28444;48.056;14.408;2024-02-15T06:49:38;98174.84;;;6.01;98.84
38912;BME280;28444;48.056;14.408;2024-02-15T06:52:08;98176.00;;;6.06;97.88
38912;BME280;28444;48.056;14.408;2024-02-15T06:54:35;98178.13;;;6.13;97.40
38912;BME280;28444;48.056;14.408;2024-02-15T06:57:02;98177.31;;;6.18;96.47
38912;BME280;28444;48.056;14.408;2024-02-15T06:59:31;98179.50;;;6.20;95.95
38912;BME280;28444;48.056;14.408;2024-02-15T07:01:59;98175.25;;;6.24;97.21
38912;BME280;28444;48.056;14.408;2024-02-15T07:04:25;98169.81;;;6.24;97.05
38912;BME280;28444;48.056;14.408;2024-02-15T07:06:53;98171.72;;;6.30;96.84
38912;BME280;28444;48.056;14.408;2024-02-15T07:09:21;98166.66;;;6.20;99.00
38912;BME280;28444;48.056;14.408;2024-02-15T07:11:51;98166.16;;;6.22;99.75
38912;BME280;28444;48.056;14.408;2024-02-15T07:14:18;98174.38;;;6.16;100.00
38912;BME280;28444;48.056;14.408;2024-02-15T07:16:46;98174.50;;;6.24;99.09
38912;BME280;28444;48.056;14.408;2024-02-15T07:19:13;98163.94;;;6.20;99.64
38912;BME280;28444;48.056;14.408;2024-02-15T07:21:41;98168.22;;;6.16;100.00
38912;BME280;28444;48.056;14.408;2024-02-15T07:24:08;98168.22;;;6.16;100.00
38912;BME280;28444;48.056;14.408;2024-02-15T07:26:36;98163.75;;;6.18;100.00
38912;BME280;28444;48.056;14.408;2024-02-15T07:29:03;98157.78;;;6.20;100.00
38912;BME280;28444;48.056;14.408;2024-02-15T07:31:34;98160.44;;;6.25;100.00
38912;BME280;28444;48.056;14.408;2024-02-15T07:34:01;98159.78;;;6.19;100.00
38912;BME280;28444;48.056;14.408;2024-02-15T07:36:30;98159.28;;;6.21;100.00
38912;BME280;28444;48.056;14.408;2024-02-15T07:38:57;98155.00;;;6.25;100.00
38912;BME280;28444;48.056;14.408;2024-02-15T07:41:28;98151.88;;;6.35;100.00
38912;BME280;28444;48.056;14.408;2024-02-15T07:43:55;98157.94;;;6.41;100.00
38912;BME280;28444;48.056;14.408;2024-02-15T07:46:22;98157.56;;;6.50;98.83
38912;BME280;28444;48.056;14.408;2024-02-15T07:48:51;98155.38;;;6.62;97.79
38912;BME280;28444;48.056;14.408;2024-02-15T07:51:20;98164.28;;;6.75;97.70
38912;BME280;28444;48.056;14.408;2024-02-15T07:53:48;98155.94;;;6.87;99.14
38912;BME280;28444;48.056;14.408;2024-02-15T07:56:16;98155.63;;;6.90;97.57
38912;BME280;28444;48.056;14.408;2024-02-15T07:58:45;98157.91;;;6.99;96.91
38912;BME280;28444;48.056;14.408;2024-02-15T08:01:19;98161.91;;;7.12;97.66
38912;BME280;28444;48.056;14.408;2024-02-15T08:03:52;98164.41;;;7.23;97.40
38912;BME280;28444;48.056;14.408;2024-02-15T08:06:21;98160.91;;;7.36;97.84
38912;BME280;28444;48.056;14.408;2024-02-15T08:08:52;98172.63;;;7.44;96.61
38912;BME280;28444;48.056;14.408;2024-02-15T08:11:19;98167.19;;;7.44;96.69
38912;BME280;28444;48.056;14.408;2024-02-15T08:13:47;98173.88;;;7.56;96.41
38912;BME280;28444;48.056;14.408;2024-02-15T08:16:19;98168.44;;;7.56;94.72
38912;BME280;28444;48.056;14.408;2024-02-15T08:18:46;98157.94;;;7.60;94.10
38912;BME280;28444;48.056;14.408;2024-02-15T08:21:13;98165.25;;;7.65;94.74
38912;BME280;28444;48.056;14.408;2024-02-15T08:23:41;98169.66;;;7.68;95.05
38912;BME280;28444;48.056;14.408;2024-02-15T08:26:08;98163.81;;;7.64;93.99
38912;BME280;28444;48.056;14.408;2024-02-15T08:28:37;98165.47;;;7.67;94.46
38912;BME280;28444;48.056;14.408;2024-02-15T08:31:05;98175.09;;;7.68;93.78
38912;BME280;28444;48.056;14.408;2024-02-15T08:33:31;98170.06;;;7.72;93.84
38912;BME280;28444;48.056;14.408;2024-02-15T08:35:58;98168.50;;;7.77;93.83
38912;BME280;28444;48.056;14.408;2024-02-15T08:38:28;98171.81;;;7.83;93.64
38912;BME280;28444;48.056;14.408;2024-02-15T08:40:54;98171.28;;;7.85;92.87
38912;BME280;28444;48.056;14.408;2024-02-15T08:43:21;98168.56;;;7.85;92.97
38912;BME280;28444;48.056;14.408;2024-02-15T08:45:48;98170.97;;;7.88;93.58
38912;BME280;28444;48.056;14.408;2024-02-15T08:48:15;98164.44;;;7.91;92.73
38912;BME280;28444;48.056;14.408;2024-02-15T08:50:42;98162.97;;;7.90;92.79
38912;BME280;28444;48.056;14.408;2024-02-15T08:53:12;98167.69;;;7.90;92.63
38912;BME280;28444;48.056;14.408;2024-02-15T08:55:39;98174.41;;;7.89;92.64
38912;BME280;28444;48.056;14.408;2024-02-15T08:58:05;98173.88;;;7.90;92.67
38912;BME280;28444;48.056;14.408;2024-02-15T09:00:32;98175.09;;;8.03;91.81
38912;BME280;28444;48.056;14.408;2024-02-15T09:02:59;98176.03;;;8.05;91.17
38912;BME280;28444;48.056;14.408;2024-02-15T09:05:26;98181.97;;;8.17;91.91
38912;BME280;28444;48.056;14.408;2024-02-15T09:07:53;98182.88;;;8.19;91.14
38912;BME280;28444;48.056;14.408;2024-02-15T09:10:20;98175.25;;;8.18;91.15
38912;BME280;28444;48.056;14.408;2024-02-15T09:12:49;98180.47;;;8.16;91.11
38912;BME280;28444;48.056;14.408;2024-02-15T09:15:16;98188.88;;;8.18;90.97
38912;BME280;28444;48.056;14.408;2024-02-15T09:17:44;98189.25;;;8.22;91.22
38912;BME280;28444;48.056;14.408;2024-02-15T09:20:14;98185.47;;;8.25;90.40
38912;BME280;28444;48.056;14.408;2024-02-15T09:22:47;98183.34;;;8.31;90.11
38912;BME280;28444;48.056;14.408;2024-02-15T09:25:14;98189.63;;;8.39;89.42
38912;BME280;28444;48.056;14.408;2024-02-15T09:27:41;98187.63;;;8.40;89.70
38912;BME280;28444;48.056;14.408;2024-02-15T09:30:09;98177.88;;;8.44;89.81
38912;BME280;28444;48.056;14.408;2024-02-15T09:32:36;98176.66;;;8.53;89.52
38912;BME280;28444;48.056;14.408;2024-02-15T09:35:04;98172.41;;;8.65;88.91
38912;BME280;28444;48.056;14.408;2024-02-15T09:37:35;98182.81;;;8.75;88.76
38912;BME280;28444;48.056;14.408;2024-02-15T09:40:12;98172.16;;;8.84;88.08
38912;BME280;28444;48.056;14.408;2024-02-15T09:42:39;98170.94;;;8.93;87.60
38912;BME280;28444;48.056;14.408;2024-02-15T09:45:08;98171.88;;;8.96;87.45
38912;BME280;28444;48.056;14.408;2024-02-15T09:47:41;98165.13;;;8.97;86.64
38912;BME280;28444;48.056;14.408;2024-02-15T09:50:09;98163.34;;;8.99;86.66
38912;BME280;28444;48.056;14.408;2024-02-15T09:52:53;98160.97;;;8.96;86.65
38912;BME280;28444;48.056;14.408;2024-02-15T09:55:24;98163.00;;;9.03;86.26
38912;BME280;28444;48.056;14.408;2024-02-15T09:57:51;98163.59;;;9.09;86.12
38912;BME280;28444;48.056;14.408;2024-02-15T10:00:18;98161.03;;;9.11;85.94
38912;BME280;28444;48.056;14.408;2024-02-15T10:02:50;98159.59;;;9.10;86.84
38912;BME280;28444;48.056;14.408;2024-02-15T10:05:17;98157.44;;;9.16;86.60
38912;BME280;28444;48.056;14.408;2024-02-15T10:07:45;98161.31;;;9.28;86.16
38912;BME280;28444;48.056;14.408;2024-02-15T10:10:19;98157.16;;;9.35;85.66
38912;BME280;28444;48.056;14.408;2024-02-15T10:12:51;98154.97;;;9.33;85.54
38912;BME280;28444;48.056;14.408;2024-02-15T10:15:32;98141.72;;;9.37;85.61
38912;BME280;28444;48.056;14.408;2024-02-15T10:18:08;98138.66;;;9.49;85.35
38912;BME280;28444;48.056;14.408;2024-02-15T10:20:38;98131.41;;;9.59;85.37
38912;BME280;28444;48.056;14.408;2024-02-15T10:23:13;98123.78;;;9.65;84.28
38912;BME280;28444;48.056;14.408;2024-02-15T10:25:45;98132.72;;;9.73;84.88
38912;BME280;28444;48.056;14.408;2024-02-15T10:28:12;98130.38;;;9.85;84.72
38912;BME280;28444;48.056;14.408;2024-02-15T10:30:43;98128.38;;;9.93;84.17
38912;BME280;28444;48.056;14.408;2024-02-15T10:33:38;98130.19;;;9.91;84.74
38912;BME280;28444;48.056;14.408;2024-02-15T10:36:08;98129.66;;;9.92;85.12
38912;BME280;28444;48.056;14.408;2024-02-15T10:38:35;98137.31;;;9.94;84.26
38912;BME280;28444;48.056;14.408;2024-02-15T10:41:06;98131.13;;;9.93;83.70
38912;BME280;28444;48.056;14.408;2024-02-15T10:43:34;98129.66;;;9.84;84.05
38912;BME280;28444;48.056;14.408;2024-02-15T10:46:01;98123.28;;;9.82;83.97
38912;BME280;28444;48.056;14.408;2024-02-15T10:48:27;98123.28;;;9.82;84.49
38912;BME280;28444;48.056;14.408;2024-02-15T10:50:56;98123.44;;;9.84;84.77
38912;BME280;28444;48.056;14.408;2024-02-15T10:53:30;98116.00;;;9.84;85.12
38912;BME280;28444;48.056;14.408;2024-02-15T10:58:47;98115.66;;;9.88;84.32
38912;BME280;28444;48.056;14.408;2024-02-15T11:01:17;98101.63;;;9.92;84.46
38912;BME280;28444;48.056;14.408;2024-02-15T11:03:54;98102.34;;;9.84;84.98
38912;BME280;28444;48.056;14.408;2024-02-15T11:06:27;98100.88;;;9.83;85.06
38912;BME280;28444;48.056;14.408;2024-02-15T11:08:56;98092.50;;;9.81;84.70
38912;BME280;28444;48.056;14.408;2024-02-15T11:11:23;98097.78;;;9.79;84.62
38912;BME280;28444;48.056;14.408;2024-02-15T11:14:23;98095.41;;;9.76;85.15
38912;BME280;28444;48.056;14.408;2024-02-15T11:16:49;98081.00;;;9.75;85.12
38912;BME280;28444;48.056;14.408;2024-02-15T11:22:08;98066.63;;;9.75;84.41
38912;BME280;28444;48.056;14.408;2024-02-15T11:24:37;98065.72;;;9.80;84.77
38912;BME280;28444;48.056;14.408;2024-02-15T11:27:11;98063.00;;;9.87;84.55
38912;BME280;28444;48.056;14.408;2024-02-15T11:32:43;98052.09;;;10.03;82.77
38912;BME280;28444;48.056;14.408;2024-02-15T11:35:16;98051.38;;;10.10;82.88
38912;BME280;28444;48.056;14.408;2024-02-15T11:40:15;98041.69;;;10.09;83.31
38912;BME280;28444;48.056;14.408;2024-02-15T11:42:46;98037.13;;;10.11;83.55
38912;BME280;28444;48.056;14.408;2024-02-15T11:45:15;98034.41;;;10.19;81.66
38912;BME280;28444;48.056;14.408;2024-02-15T11:47:50;98030.56;;;10.22;80.30
38912;BME280;28444;48.056;14.408;2024-02-15T11:50:19;98030.97;;;10.26;80.17
38912;BME280;28444;48.056;14.408;2024-02-15T11:52:47;98027.31;;;10.31;80.84
38912;BME280;28444;48.056;14.408;2024-02-15T11:55:20;98030.22;;;10.33;82.28
38912;BME280;28444;48.056;14.408;2024-02-15T11:58:00;98022.94;;;10.28;82.94
38912;BME280;28444;48.056;14.408;2024-02-15T12:00:38;98026.41;;;10.29;82.90
38912;BME280;28444;48.056;14.408;2024-02-15T12:03:25;98015.28;;;10.27;83.55
38912;BME280;28444;48.056;14.408;2024-02-15T12:06:27;98015.63;;;10.23;84.14
38912;BME280;28444;48.056;14.408;2024-02-15T12:09:17;98012.91;;;10.16;84.44
38912;BME280;28444;48.056;14.408;2024-02-15T12:12:02;98009.28;;;10.13;83.53
38912;BME280;28444;48.056;14.408;2024-02-15T12:14:48;98003.63;;;10.19;84.68
38912;BME280;28444;48.056;14.408;2024-02-15T12:17:33;98000.00;;;10.31;83.05
38912;BME280;28444;48.056;14.408;2024-02-15T12:20:18;97999.25;;;10.31;83.03
38912;BME280;28444;48.056;14.408;2024-02-15T12:22:52;97987.78;;;10.32;83.05
38912;BME280;28444;48.056;14.408;2024-02-15T12:25:19;97991.59;;;10.29;83.17
38912;BME280;28444;48.056;14.408;2024-02-15T12:27:59;97991.78;;;10.31;83.73
38912;BME280;28444;48.056;14.408;2024-02-15T12:30:32;97982.09;;;10.38;82.34
38912;BME280;28444;48.056;14.408;2024-02-15T12:33:09;97977.69;;;10.50;81.12
38912;BME280;28444;48.056;14.408;2024-02-15T12:35:38;97976.00;;;10.63;82.74
38912;BME280;28444;48.056;14.408;2024-02-15T12:38:05;97973.25;;;10.70;82.24
38912;BME280;28444;48.056;14.408;2024-02-15T12:40:33;97971.75;;;10.77;80.88
38912;BME280;28444;48.056;14.408;2024-02-15T12:43:00;97970.81;;;10.82;79.90
38912;BME280;28444;48.056;14.408;2024-02-15T12:45:27;97962.22;;;10.85;80.14
38912;BME280;28444;48.056;14.408;2024-02-15T12:47:56;97959.31;;;10.91;78.01
38912;BME280;28444;48.056;14.408;2024-02-15T12:50:29;97949.91;;;11.09;77.19
38912;BME280;28444;48.056;14.408;2024-02-15T12:52:57;97945.31;;;11.12;76.57
38912;BME280;28444;48.056;14.408;2024-02-15T12:55:34;97946.63;;;11.11;76.40
38912;BME280;28444;48.056;14.408;2024-02-15T12:58:06;97945.47;;;11.14;75.90
38912;BME280;28444;48.056;14.408;2024-02-15T13:00:36;97943.13;;;11.11;77.53
38912;BME280;28444;48.056;14.408;2024-02-15T13:03:08;97938.78;;;11.07;79.75
38912;BME280;28444;48.056;14.408;2024-02-15T13:05:39;97936.06;;;11.07;78.08
38912;BME280;28444;48.056;14.408;2024-02-15T13:08:07;97927.84;;;11.07;78.68
38912;BME280;28444;48.056;14.408;2024-02-15T13:10:40;97920.75;;;11.04;77.40
38912;BME280;28444;48.056;14.408;2024-02-15T13:13:07;97917.44;;;11.06;79.02
38912;BME280;28444;48.056;14.408;2024-02-15T13:15:36;97919.41;;;11.13;77.05
38912;BME280;28444;48.056;14.408;2024-02-15T13:18:04;97920.84;;;11.14;76.67
38912;BME280;28444;48.056;14.408;2024-02-15T13:20:32;97919.06;;;11.09;78.41